Time;durP1;ratioP1;P1;durP2;ratioP2;P2;SDS_P1;SDS_P2;PMS_P1;PMS_P2;Temp;Humidity;BMP_temperature;BMP_pressure;BME280_temperature;BME280_humidity;BME280_pressure;Samples;Min_cycle;Max_cycle;Signal;HPM_P1;HPM_P2
2022/11/07 00:01:57;;;;;;;7.63;3.05;;;;;;;10.28;100.00;100674.78;4987999;28;20569;-78
2022/11/07 00:04:23;;;;;;;9.73;3.38;;;;;;;10.27;100.00;100678.38;4983460;28;20034;-75
2022/11/07 00:06:48;;;;;;;7.18;3.20;;;;;;;10.24;100.00;100668.06;4991150;28;20037;-76
2022/11/07 00:09:14;;;;;;;9.13;3.53;;;;;;;10.21;100.00;100678.81;4996185;28;20049;-75
2022/11/07 00:11:40;;;;;;;6.57;2.72;;;;;;;10.16;100.00;100676.50;4990814;28;20046;-76
2022/11/07 00:14:05;;;;;;;8.38;3.00;;;;;;;10.15;100.00;100689.78;4991688;28;20298;-75
2022/11/07 00:16:31;;;;;;;6.75;3.00;;;;;;;10.10;100.00;100691.91;4990859;28;20026;-75
2022/11/07 00:18:57;;;;;;;8.27;3.03;;;;;;;10.08;100.00;100688.56;4990993;28;20031;-75
2022/11/07 00:21:22;;;;;;;9.18;3.20;;;;;;;10.03;100.00;100700.25;4990455;28;20042;-75
2022/11/07 00:23:47;;;;;;;7.68;3.03;;;;;;;10.02;100.00;100695.13;4992262;28;20049;-82
2022/11/07 00:26:14;;;;;;;8.27;3.15;;;;;;;9.98;100.00;100694.47;4991061;28;20022;-82
2022/11/07 00:28:41;;;;;;;8.80;3.13;;;;;;;9.94;100.00;100695.66;4992243;28;20026;-83
2022/11/07 00:31:08;;;;;;;6.93;3.08;;;;;;;9.94;100.00;100690.41;4990477;28;20039;-82
2022/11/07 00:33:34;;;;;;;11.63;3.10;;;;;;;9.96;100.00;100698.16;4991584;28;20030;-82
2022/11/07 00:35:59;;;;;;;8.10;3.50;;;;;;;9.97;100.00;100698.06;4990104;28;20113;-75
2022/11/07 00:38:24;;;;;;;9.73;3.13;;;;;;;9.95;100.00;100699.13;4993843;28;20026;-76
2022/11/07 00:40:58;;;;;;;9.07;3.30;;;;;;;9.93;100.00;100696.59;5009151;28;20073;-75
2022/11/07 00:43:24;;;;;;;9.82;3.33;;;;;;;9.92;100.00;100694.94;5011352;28;20117;-76
2022/11/07 00:45:49;;;;;;;8.50;3.03;;;;;;;9.89;100.00;100700.41;5026282;28;20217;-77
2022/11/07 00:48:15;;;;;;;6.53;3.20;;;;;;;9.89;100.00;100708.31;5008757;28;20037;-78
2022/11/07 00:50:40;;;;;;;12.82;3.58;;;;;;;9.87;100.00;100707.56;5009392;28;20029;-75
2022/11/07 00:53:06;;;;;;;8.70;3.17;;;;;;;9.86;100.00;100713.78;5009495;28;20045;-82
2022/11/07 00:55:32;;;;;;;9.60;3.42;;;;;;;9.82;100.00;100712.34;4992337;28;20109;-76
2022/11/07 00:57:57;;;;;;;10.07;3.22;;;;;;;9.82;100.00;100711.50;4991321;28;20129;-76
2022/11/07 01:00:23;;;;;;;7.30;3.03;;;;;;;9.80;100.00;100708.13;4991202;28;20105;-76
2022/11/07 01:05:09;;;;;;;11.52;3.72;;;;;;;9.81;100.00;100712.44;5006278;28;20033;-75
2022/11/07 01:05:34;;;;;;;9.10;2.83;;;;;;;9.80;100.00;100711.59;4990155;28;20522;-76
2022/11/07 01:07:59;;;;;;;11.00;3.25;;;;;;;9.80;100.00;100711.59;4991188;28;20025;-75
2022/11/07 01:10:24;;;;;;;10.82;3.10;;;;;;;9.83;100.00;100706.13;5004940;28;20037;-81
2022/11/07 01:12:49;;;;;;;10.77;3.40;;;;;;;9.82;100.00;100720.22;4990337;28;20110;-74
2022/11/07 01:15:15;;;;;;;8.70;3.08;;;;;;;9.85;100.00;100720.00;4989912;28;20509;-75
2022/11/07 01:17:40;;;;;;;11.95;3.60;;;;;;;9.86;100.00;100726.91;4990778;28;20025;-82
2022/11/07 01:20:06;;;;;;;12.05;3.17;;;;;;;9.85;100.00;100730.50;4991109;28;20534;-82
2022/11/07 01:22:32;;;;;;;7.80;3.25;;;;;;;9.88;100.00;100735.53;4989589;28;20521;-76
2022/11/07 01:24:57;;;;;;;8.68;3.47;;;;;;;9.88;100.00;100734.69;5002006;28;20060;-75
2022/11/07 01:27:22;;;;;;;7.78;2.95;;;;;;;9.88;100.00;100738.16;5002384;28;20037;-75
2022/11/07 01:29:47;;;;;;;7.45;3.25;;;;;;;9.86;100.00;100737.44;4989076;28;20105;-75
2022/11/07 01:32:13;;;;;;;11.25;3.30;;;;;;;9.87;100.00;100739.09;5005511;28;20030;-75
2022/11/07 01:34:41;;;;;;;9.75;3.20;;;;;;;9.86;100.00;100747.09;4990892;28;20030;-75
2022/11/07 01:37:06;;;;;;;8.82;3.20;;;;;;;9.86;100.00;100742.69;4998827;28;20518;-76
2022/11/07 01:39:32;;;;;;;8.90;3.30;;;;;;;9.90;100.00;100743.31;5013542;28;20034;-82
2022/11/07 01:41:57;;;;;;;13.43;3.40;;;;;;;9.93;100.00;100732.56;5010069;28;20018;-82
2022/11/07 01:44:23;;;;;;;9.52;3.22;;;;;;;9.93;100.00;100733.41;5022956;28;20025;-75
2022/11/07 01:46:50;;;;;;;11.75;3.20;;;;;;;9.93;100.00;100735.19;4993050;28;20550;-75
2022/11/07 01:49:35;;;;;;;11.25;3.80;;;;;;;9.97;100.00;100742.75;5009623;28;20096;-76
2022/11/07 01:52:10;;;;;;;9.90;3.63;;;;;;;9.97;100.00;100745.38;5009486;28;20056;-76
2022/11/07 01:54:42;;;;;;;6.97;3.20;;;;;;;9.98;100.00;100747.03;5025049;28;20052;-75
2022/11/07 01:57:14;;;;;;;7.63;3.08;;;;;;;10.00;100.00;100749.56;5009211;28;20033;-75
2022/11/07 01:59:40;;;;;;;10.52;2.85;;;;;;;10.01;100.00;100752.09;5025142;28;20029;-76
2022/11/07 02:02:06;;;;;;;10.45;3.20;;;;;;;10.01;100.00;100752.09;5004392;28;20061;-75
2022/11/07 02:04:32;;;;;;;13.02;3.63;;;;;;;10.02;100.00;100748.53;4986987;28;20049;-75
2022/11/07 02:07:07;;;;;;;9.63;3.53;;;;;;;10.03;100.00;100755.47;5004729;28;20022;-75
2022/11/07 02:09:33;;;;;;;8.13;3.30;;;;;;;10.04;100.00;100751.88;5003437;28;20022;-82
2022/11/07 02:11:59;;;;;;;8.45;2.95;;;;;;;10.03;100.00;100750.19;5008996;28;20050;-82
2022/11/07 02:14:26;;;;;;;14.40;3.40;;;;;;;9.99;100.00;100753.97;5009261;28;20026;-75
2022/11/07 02:16:52;;;;;;;9.52;3.25;;;;;;;10.00;100.00;100754.81;5007042;28;20030;-76
2022/11/07 02:19:32;;;;;;;10.68;3.75;;;;;;;10.03;100.00;100749.38;5024254;28;20055;-82
2022/11/07 02:22:12;;;;;;;12.23;3.58;;;;;;;10.05;100.00;100750.94;4989254;28;20117;-76
2022/11/07 02:24:39;;;;;;;11.30;3.10;;;;;;;10.04;100.00;100757.13;4990704;28;20038;-76
2022/11/07 02:27:18;;;;;;;11.70;3.78;;;;;;;10.06;100.00;100754.41;4990343;28;20031;-83
2022/11/07 02:29:47;;;;;;;12.43;3.55;;;;;;;10.02;100.00;100753.78;4990638;28;20084;-76
2022/11/07 02:32:12;;;;;;;10.63;3.20;;;;;;;10.04;100.00;100749.25;4989715;28;20018;-76
2022/11/07 02:34:41;;;;;;;11.85;3.60;;;;;;;10.03;100.00;100755.47;4991040;28;20494;-76
2022/11/07 02:37:16;;;;;;;10.82;3.53;;;;;;;10.04;100.00;100753.66;4989129;28;20490;-77
2022/11/07 02:39:41;;;;;;;11.05;3.22;;;;;;;10.07;100.00;100755.22;4986583;28;20068;-76
2022/11/07 02:42:06;;;;;;;12.65;3.72;;;;;;;10.07;100.00;100747.34;5007176;28;20057;-76
2022/11/07 02:44:33;;;;;;;8.70;3.40;;;;;;;10.07;100.00;100749.97;5008531;28;20030;-75
2022/11/07 02:46:58;;;;;;;12.80;3.75;;;;;;;10.07;100.00;100747.34;5007358;28;20301;-76
2022/11/07 02:49:23;;;;;;;11.27;3.30;;;;;;;10.10;100.00;100744.50;5009375;28;20387;-76
2022/11/07 02:51:49;;;;;;;12.20;3.90;;;;;;;10.08;100.00;100743.75;5009348;28;20026;-75
2022/11/07 02:54:14;;;;;;;12.20;3.55;;;;;;;10.05;100.00;100758.81;4990669;28;20037;-81
2022/11/07 02:56:39;;;;;;;12.05;3.25;;;;;;;10.04;100.00;100751.88;4989932;28;20026;-77
2022/11/07 02:59:05;;;;;;;13.10;3.38;;;;;;;10.01;100.00;100744.22;4989701;28;20035;-77
2022/11/07 03:01:30;;;;;;;15.18;4.35;;;;;;;10.01;100.00;100736.34;4988066;28;20025;-77
2022/11/07 03:03:56;;;;;;;14.88;3.70;;;;;;;10.01;100.00;100738.97;4987228;28;20022;-83
2022/11/07 03:06:24;;;;;;;14.02;3.70;;;;;;;10.00;100.00;100750.41;4989779;28;20060;-84
2022/11/07 03:08:50;;;;;;;9.98;3.40;;;;;;;10.00;100.00;100739.03;4996062;28;20026;-82
2022/11/07 03:11:19;;;;;;;12.95;3.33;;;;;;;9.97;100.00;100740.09;5002510;28;20055;-81
2022/11/07 03:13:49;;;;;;;10.32;3.22;;;;;;;9.97;100.00;100747.16;4984606;28;20076;-82
2022/11/07 03:16:16;;;;;;;14.50;3.50;;;;;;;9.97;100.00;100747.16;4970035;28;20591;-75
2022/11/07 03:18:41;;;;;;;19.73;4.47;;;;;;;9.95;100.00;100751.69;4977081;28;20493;-77
2022/11/07 03:21:06;;;;;;;14.15;3.90;;;;;;;9.95;100.00;100747.28;4992879;28;20274;-76
2022/11/07 03:23:33;;;;;;;17.02;3.97;;;;;;;9.95;100.00;100746.44;4992727;28;20386;-76
2022/11/07 03:25:59;;;;;;;17.65;3.80;;;;;;;9.98;100.00;100748.84;4992884;28;20038;-74
2022/11/07 03:28:24;;;;;;;14.07;3.67;;;;;;;9.95;100.00;100746.44;4993385;28;20027;-77
2022/11/07 03:30:50;;;;;;;16.23;3.88;;;;;;;9.97;100.00;100748.00;4993850;28;20023;-76
2022/11/07 03:33:15;;;;;;;14.57;3.90;;;;;;;9.95;100.00;100736.75;4993609;28;20051;-83
2022/11/07 03:35:41;;;;;;;15.27;3.28;;;;;;;9.99;100.00;100742.63;4991513;28;20034;-84
2022/11/07 03:38:06;;;;;;;15.55;4.00;;;;;;;10.01;100.00;100749.47;4994465;28;20064;-83
2022/11/07 03:40:32;;;;;;;17.75;4.00;;;;;;;10.01;100.00;100752.09;5027987;28;20116;-77
2022/11/07 03:42:57;;;;;;;12.32;3.38;;;;;;;10.04;100.00;100746.63;5009922;28;20022;-76
2022/11/07 03:45:22;;;;;;;15.68;4.13;;;;;;;10.08;100.00;100751.66;5005568;28;20030;-77
2022/11/07 03:47:48;;;;;;;17.85;4.13;;;;;;;10.09;100.00;100745.44;5007936;28;20049;-77
2022/11/07 03:50:16;;;;;;;14.25;3.97;;;;;;;10.10;100.00;100749.75;4992252;28;20030;-76
2022/11/07 03:52:43;;;;;;;18.42;4.43;;;;;;;10.10;100.00;100750.59;4992897;28;20026;-76
2022/11/07 03:55:10;;;;;;;12.80;3.60;;;;;;;10.14;100.00;100756.44;4993262;28;20034;-82
2022/11/07 03:57:35;;;;;;;15.73;3.78;;;;;;;10.14;100.00;100751.19;4992540;28;20081;-77
2022/11/07 04:00:01;;;;;;;14.38;3.53;;;;;;;10.15;100.00;100743.19;4994304;28;20474;-76
2022/11/07 04:02:26;;;;;;;17.45;3.58;;;;;;;10.19;100.00;100746.44;4992399;28;20188;-75
2022/11/07 04:04:51;;;;;;;18.92;3.88;;;;;;;10.19;100.00;100744.63;4991373;28;20478;-76
2022/11/07 04:07:17;;;;;;;12.98;3.42;;;;;;;10.20;100.00;100748.09;4991696;28;20026;-76
2022/11/07 04:09:42;;;;;;;11.48;3.60;;;;;;;10.22;100.00;100743.59;4990255;28;20121;-76
2022/11/07 04:17:36;;;;;;;15.48;3.65;;;;;;;10.22;100.00;100743.59;4989878;28;20073;-75
2022/11/07 04:20:02;;;;;;;15.68;3.67;;;;;;;10.23;100.00;100747.91;4991598;28;20034;-75
2022/11/07 04:22:28;;;;;;;13.98;3.42;;;;;;;10.22;100.00;100748.88;4992085;28;20022;-75
2022/11/07 04:24:53;;;;;;;12.70;3.53;;;;;;;10.22;100.00;100749.69;5000201;28;20030;-75
2022/11/07 04:30:17;;;;;;;16.80;4.30;;;;;;;10.22;100.00;100754.13;5011832;28;20112;-82
2022/11/07 04:32:47;;;;;;;15.20;3.75;;;;;;;10.20;100.00;100762.13;4996201;28;20069;-77
2022/11/07 04:35:13;;;;;;;14.15;3.42;;;;;;;10.20;100.00;100761.25;4992333;28;20034;-75
2022/11/07 04:37:38;;;;;;;16.45;3.90;;;;;;;10.17;100.00;100762.31;4991125;28;20037;-75
2022/11/07 04:40:04;;;;;;;17.35;3.88;;;;;;;10.18;100.00;100763.16;4987865;28;20033;-75
2022/11/07 04:42:33;;;;;;;13.65;3.13;;;;;;;10.19;100.00;100763.03;4980809;28;20114;-75
2022/11/07 04:44:58;;;;;;;14.32;2.90;;;;;;;10.20;100.00;100762.13;5000547;28;20034;-75
2022/11/07 04:47:23;;;;;;;16.85;3.92;;;;;;;10.23;100.00;100755.81;5010519;28;20136;-75
2022/11/07 04:49:48;;;;;;;17.88;3.90;;;;;;;10.25;100.00;100759.16;5002455;28;20034;-75
2022/11/07 04:52:14;;;;;;;15.38;3.90;;;;;;;10.26;100.00;100758.19;5005624;28;20076;-75
2022/11/07 04:54:39;;;;;;;20.83;3.88;;;;;;;10.28;100.00;100761.56;4999551;28;20468;-82
2022/11/07 04:57:04;;;;;;;13.63;3.67;;;;;;;10.28;100.00;100764.19;5011403;28;20022;-76
2022/11/07 04:59:32;;;;;;;14.80;3.75;;;;;;;10.28;100.00;100764.19;5009583;28;20121;-76
2022/11/07 05:01:58;;;;;;;17.77;3.83;;;;;;;10.31;100.00;100759.53;5011508;28;20030;-75
2022/11/07 05:04:23;;;;;;;14.20;3.42;;;;;;;10.33;100.00;100752.38;5011365;28;20022;-75
2022/11/07 05:06:49;;;;;;;16.92;3.50;;;;;;;10.33;100.00;100764.69;5004269;28;20030;-75
2022/11/07 05:09:16;;;;;;;20.23;3.50;;;;;;;10.34;100.00;100768.97;4995946;28;20028;-75
2022/11/07 05:11:42;;;;;;;16.65;3.80;;;;;;;10.33;100.00;100768.16;5010113;28;20101;-75
2022/11/07 05:14:08;;;;;;;15.70;3.55;;;;;;;10.33;100.00;100773.41;5010439;28;20026;-75
2022/11/07 05:16:33;;;;;;;19.05;3.50;;;;;;;10.33;100.00;100769.94;5008604;28;20025;-76
2022/11/07 05:19:00;;;;;;;16.92;3.97;;;;;;;10.33;100.00;100772.56;5010769;28;20033;-75
2022/11/07 05:21:25;;;;;;;20.88;3.88;;;;;;;10.35;100.00;100773.28;5008148;28;20029;-75
2022/11/07 05:23:50;;;;;;;19.52;4.18;;;;;;;10.34;100.00;100772.44;5008767;28;20112;-75
2022/11/07 05:26:16;;;;;;;21.50;4.40;;;;;;;10.36;100.00;100772.34;4990558;28;20073;-76
2022/11/07 05:28:42;;;;;;;14.85;3.70;;;;;;;10.37;100.00;100779.28;4989639;28;20387;-75
2022/11/07 05:31:13;;;;;;;15.82;3.83;;;;;;;10.38;100.00;100780.94;4990401;28;20029;-75
2022/11/07 05:33:38;;;;;;;18.33;4.05;;;;;;;10.42;100.00;100778.97;4988724;28;20057;-75
2022/11/07 05:36:23;;;;;;;17.25;3.50;;;;;;;10.44;100.00;100783.16;4988491;28;20648;-75
2022/11/07 05:38:50;;;;;;;15.68;3.38;;;;;;;10.44;100.00;100780.53;5005306;28;20036;-82
2022/11/07 05:41:17;;;;;;;18.85;3.33;;;;;;;10.44;100.00;100780.53;5007588;28;20073;-77
2022/11/07 05:43:43;;;;;;;18.05;3.60;;;;;;;10.44;100.00;100775.25;5000507;28;20046;-75
2022/11/07 05:46:09;;;;;;;13.55;3.38;;;;;;;10.46;100.00;100776.00;4990038;28;20453;-76
2022/11/07 05:48:35;;;;;;;14.52;3.60;;;;;;;10.48;100.00;100775.88;5007007;28;20040;-77
2022/11/07 05:51:05;;;;;;;16.88;3.67;;;;;;;10.49;100.00;100780.19;5010015;28;20402;-78
2022/11/07 05:53:34;;;;;;;19.10;4.93;;;;;;;10.51;100.00;100770.38;5010358;28;20433;-83
2022/11/07 05:55:59;;;;;;;21.40;4.80;;;;;;;10.52;100.00;100779.94;4990947;28;20072;-78
2022/11/07 05:58:24;;;;;;;14.57;3.47;;;;;;;10.54;100.00;100770.97;4990305;28;20053;-77
2022/11/07 06:00:50;;;;;;;18.27;4.15;;;;;;;10.55;100.00;100777.91;4999449;28;20031;-82
2022/11/07 06:03:18;;;;;;;16.63;3.50;;;;;;;10.55;100.00;100772.66;4969114;28;20102;-75
2022/11/07 06:05:44;;;;;;;16.27;3.63;;;;;;;10.56;100.00;100773.50;4970438;28;20054;-75
2022/11/07 06:08:12;;;;;;;15.40;3.92;;;;;;;10.57;100.00;100775.19;4978403;28;20510;-75
2022/11/07 06:10:39;;;;;;;20.48;4.18;;;;;;;10.58;100.00;100772.44;4989292;28;20126;-81
2022/11/07 06:13:06;;;;;;;15.15;3.70;;;;;;;10.59;100.00;100774.09;5006264;28;20131;-82
2022/11/07 06:15:35;;;;;;;17.00;3.78;;;;;;;10.60;100.00;100769.69;5009740;28;20494;-76
2022/11/07 06:18:02;;;;;;;17.80;3.88;;;;;;;10.60;100.00;100770.53;5009098;28;20026;-75
2022/11/07 06:20:28;;;;;;;15.18;3.67;;;;;;;10.59;100.00;100774.09;4990846;28;20022;-75
2022/11/07 06:23:02;;;;;;;16.83;3.58;;;;;;;10.61;100.00;100781.88;4990228;28;20053;-82
2022/11/07 06:25:28;;;;;;;15.00;3.65;;;;;;;10.63;100.00;100780.81;4990221;28;20467;-76
2022/11/07 06:28:05;;;;;;;16.40;3.72;;;;;;;10.64;100.00;100776.38;4990346;28;20026;-76
2022/11/07 06:30:31;;;;;;;19.65;4.05;;;;;;;10.64;100.00;100787.75;4988235;28;20026;-76
2022/11/07 06:33:06;;;;;;;17.92;3.60;;;;;;;10.68;100.00;100793.63;5004669;28;20022;-76
2022/11/07 06:35:32;;;;;;;17.23;3.90;;;;;;;10.71;100.00;100792.53;4988442;28;20036;-77
2022/11/07 06:38:02;;;;;;;14.85;3.55;;;;;;;10.75;100.00;100788.72;5004235;28;20129;-78
2022/11/07 06:40:27;;;;;;;18.15;3.75;;;;;;;10.78;100.00;100789.34;4968783;28;20035;-84
2022/11/07 06:42:53;;;;;;;15.70;3.38;;;;;;;10.79;100.00;100792.81;4967983;28;20410;-83
2022/11/07 06:45:18;;;;;;;13.50;3.22;;;;;;;10.79;100.00;100792.81;4984484;28;20053;-77
2022/11/07 06:47:43;;;;;;;13.77;3.60;;;;;;;10.79;100.00;100790.16;4991914;28;20440;-77
2022/11/07 06:50:09;;;;;;;20.38;4.03;;;;;;;10.81;100.00;100799.66;5007194;28;20429;-77
2022/11/07 06:52:34;;;;;;;18.55;3.55;;;;;;;10.81;100.00;100804.09;4984996;28;20614;-77
2022/11/07 06:54:59;;;;;;;14.15;3.63;;;;;;;10.83;100.00;100810.06;4991960;28;20034;-77
2022/11/07 06:57:25;;;;;;;17.83;3.75;;;;;;;10.84;100.00;100814.38;4993431;28;20018;-76
2022/11/07 06:59:50;;;;;;;25.05;4.30;;;;;;;10.86;100.00;100812.47;4990965;28;20117;-77
2022/11/07 07:02:15;;;;;;;17.23;3.90;;;;;;;10.88;100.00;100821.09;4992076;28;20116;-77
2022/11/07 07:04:41;;;;;;;18.95;3.85;;;;;;;10.89;100.00;100810.44;4991611;28;20113;-76
2022/11/07 07:07:06;;;;;;;16.42;3.85;;;;;;;10.91;100.00;100823.47;4992878;28;20414;-76
2022/11/07 07:09:32;;;;;;;19.80;3.95;;;;;;;10.94;100.00;100810.09;4991386;28;20549;-85
2022/11/07 07:11:57;;;;;;;17.40;3.80;;;;;;;10.95;100.00;100822.28;5007773;28;20054;-77
2022/11/07 07:14:23;;;;;;;14.90;3.92;;;;;;;10.96;100.00;100821.34;4992785;28;20105;-76
2022/11/07 07:16:48;;;;;;;17.77;3.83;;;;;;;10.97;100.00;100826.47;4992820;28;20039;-84
2022/11/07 07:19:14;;;;;;;15.55;3.53;;;;;;;11.00;100.00;100825.41;4993473;28;20023;-83
2022/11/07 07:21:39;;;;;;;17.98;3.83;;;;;;;11.01;100.00;100821.81;4992365;28;20026;-83
2022/11/07 07:24:05;;;;;;;18.00;3.95;;;;;;;11.05;100.00;100839.06;4993558;28;20084;-75
2022/11/07 07:26:33;;;;;;;17.60;3.70;;;;;;;11.07;100.00;100842.41;4992399;28;20031;-83
2022/11/07 07:28:59;;;;;;;14.90;3.92;;;;;;;11.10;100.00;100829.00;4994823;28;20065;-76
2022/11/07 07:31:29;;;;;;;17.67;3.63;;;;;;;11.12;100.00;100832.38;5002589;28;20402;-76
2022/11/07 07:33:55;;;;;;;14.38;3.70;;;;;;;11.15;100.00;100841.81;5003003;28;20541;-85
2022/11/07 07:36:20;;;;;;;17.13;3.55;;;;;;;11.18;100.00;100837.16;4998996;28;20042;-83
2022/11/07 07:38:46;;;;;;;15.45;3.53;;;;;;;11.20;100.00;100837.03;5012795;28;20145;-83
2022/11/07 07:41:11;;;;;;;15.57;3.30;;;;;;;11.22;100.00;100846.53;4992451;28;20065;-76
2022/11/07 07:43:37;;;;;;;17.63;3.80;;;;;;;11.24;100.00;100844.63;4973045;28;20027;-76
2022/11/07 07:46:04;;;;;;;17.38;4.30;;;;;;;11.27;100.00;100844.38;4973230;28;20059;-76
2022/11/07 07:48:33;;;;;;;17.77;3.85;;;;;;;11.32;100.00;100854.56;4972910;28;20027;-76
2022/11/07 07:50:58;;;;;;;17.80;3.65;;;;;;;11.35;100.00;100858.75;4973092;28;20030;-76
2022/11/07 07:53:24;;;;;;;22.13;4.05;;;;;;;11.37;100.00;100859.47;4988812;28;20384;-76
2022/11/07 07:55:49;;;;;;;16.42;3.35;;;;;;;11.40;100.00;100864.50;4989924;28;20526;-75
2022/11/07 07:58:15;;;;;;;17.15;3.75;;;;;;;11.45;100.00;100868.44;5006973;28;20109;-75
2022/11/07 08:00:41;;;;;;;19.77;4.32;;;;;;;11.52;100.00;100868.81;4991830;28;20431;-76
2022/11/07 08:03:11;;;;;;;14.23;3.67;;;;;;;11.59;100.00;100873.47;4991315;28;20034;-76
2022/11/07 08:05:37;;;;;;;17.00;3.50;;;;;;;11.63;100.00;100863.56;4991700;28;20073;-76
2022/11/07 08:08:03;;;;;;;13.38;3.13;;;;;;;11.66;100.00;100855.41;5007616;28;20482;-75
2022/11/07 08:10:29;;;;;;;15.18;3.58;;;;;;;11.67;100.00;100861.53;5006526;28;20383;-75
2022/11/07 08:12:54;;;;;;;15.43;3.83;;;;;;;11.69;100.00;100855.16;5006274;28;20073;-76
2022/11/07 08:15:20;;;;;;;15.15;3.65;;;;;;;11.74;100.00;100866.19;4991160;28;20517;-76
2022/11/07 08:17:46;;;;;;;18.30;4.00;;;;;;;11.83;100.00;100859.38;4984784;28;20038;-83
2022/11/07 08:20:14;;;;;;;16.23;3.67;;;;;;;11.88;100.00;100871.22;5003680;28;20113;-76
2022/11/07 08:22:40;;;;;;;14.68;3.42;;;;;;;12.01;100.00;100870.25;4991682;28;20046;-82
2022/11/07 08:25:07;;;;;;;15.40;3.70;;;;;;;12.07;99.75;100875.06;5005813;28;20577;-76
2022/11/07 08:27:36;;;;;;;13.38;3.50;;;;;;;12.07;99.69;100867.16;5006328;28;20030;-75
2022/11/07 08:30:03;;;;;;;16.13;3.25;;;;;;;12.04;99.25;100875.31;4990527;28;20025;-76
2022/11/07 08:32:29;;;;;;;15.10;3.20;;;;;;;11.98;99.61;100875.78;4989933;28;20401;-83
2022/11/07 08:34:54;;;;;;;14.98;3.40;;;;;;;11.95;99.82;100876.03;4988260;28;20105;-76
2022/11/07 08:37:20;;;;;;;13.95;3.22;;;;;;;11.90;100.00;100869.31;4993080;28;20082;-75
2022/11/07 08:39:45;;;;;;;14.43;3.90;;;;;;;11.90;100.00;100873.75;4990968;28;20073;-75
2022/11/07 08:42:11;;;;;;;14.68;3.38;;;;;;;11.95;100.00;100883.94;4991594;28;20038;-76
2022/11/07 08:44:37;;;;;;;17.40;3.97;;;;;;;11.99;100.00;100880.94;4990795;28;20070;-76
2022/11/07 08:47:03;;;;;;;11.80;3.50;;;;;;;12.04;100.00;100891.97;4992093;28;20022;-76
2022/11/07 08:49:28;;;;;;;15.80;3.33;;;;;;;12.08;100.00;100884.66;4992449;28;20022;-84
2022/11/07 08:51:58;;;;;;;15.93;3.35;;;;;;;12.12;99.68;100894.84;4988029;28;20026;-76
2022/11/07 08:54:27;;;;;;;13.07;3.05;;;;;;;12.17;99.76;100897.94;5006645;28;20054;-76
2022/11/07 08:56:53;;;;;;;14.18;3.20;;;;;;;12.21;99.45;100906.44;4989611;28;20034;-76
2022/11/07 08:59:18;;;;;;;15.60;3.70;;;;;;;12.24;99.85;100906.19;4993108;28;20026;-76
2022/11/07 09:01:43;;;;;;;12.70;3.08;;;;;;;12.27;99.20;100913.88;5009299;28;20025;-76
2022/11/07 09:04:09;;;;;;;16.95;3.58;;;;;;;12.30;99.20;100916.25;4990740;28;20029;-76
2022/11/07 09:06:38;;;;;;;13.07;3.28;;;;;;;12.31;98.64;100917.09;4988650;28;20035;-76
2022/11/07 09:09:04;;;;;;;16.15;3.65;;;;;;;12.29;98.49;100913.75;4990829;28;20487;-74
2022/11/07 09:11:29;;;;;;;13.20;3.38;;;;;;;12.33;98.73;100909.91;4990278;28;20101;-82
2022/11/07 09:13:55;;;;;;;15.98;3.63;;;;;;;12.34;98.50;100920.31;4989539;28;20030;-78
2022/11/07 09:16:21;;;;;;;17.23;3.92;;;;;;;12.34;98.56;100920.31;5006314;28;20113;-77
2022/11/07 09:18:49;;;;;;;16.80;3.05;;;;;;;12.35;98.91;100926.44;5004522;28;20046;-87
2022/11/07 09:21:14;;;;;;;18.58;3.83;;;;;;;12.37;98.71;100917.44;4987947;28;20015;-74
2022/11/07 09:23:40;;;;;;;14.93;2.92;;;;;;;12.38;98.63;100921.75;4990220;28;20482;-76
2022/11/07 09:26:06;;;;;;;15.38;3.63;;;;;;;12.42;98.32;100933.78;5005326;28;20157;-76
2022/11/07 09:28:34;;;;;;;14.52;4.05;;;;;;;12.43;98.78;100938.09;4989253;28;20026;-76
2022/11/07 09:31:02;;;;;;;16.42;3.95;;;;;;;12.45;98.25;100928.25;4982308;28;20105;-76
2022/11/07 09:33:28;;;;;;;15.00;3.63;;;;;;;12.45;98.36;100933.53;4990973;28;20026;-77
2022/11/07 09:35:53;;;;;;;15.48;3.40;;;;;;;12.47;98.07;100926.31;4988692;28;20450;-77
2022/11/07 09:38:19;;;;;;;12.77;3.53;;;;;;;12.48;98.12;100941.19;5004685;28;20046;-75
2022/11/07 09:41:09;;;;;;;14.25;3.42;;;;;;;12.53;98.05;100935.53;4992534;28;20026;-75
2022/11/07 09:44:08;;;;;;;20.38;3.60;;;;;;;12.60;97.96;100935.88;4993254;28;20031;-75
2022/11/07 09:46:51;;;;;;;14.88;3.80;;;;;;;12.62;97.41;100939.22;4986585;28;20042;-75
2022/11/07 09:49:28;;;;;;;15.07;3.97;;;;;;;12.65;96.96;100936.34;4994923;28;20093;-75
2022/11/07 09:52:16;;;;;;;18.00;3.60;;;;;;;12.62;96.76;100932.16;5001357;28;20092;-75
2022/11/07 09:55:11;;;;;;;15.48;4.03;;;;;;;12.67;97.25;100937.03;4988155;28;20036;-76
2022/11/07 09:57:37;;;;;;;13.57;3.30;;;;;;;12.69;97.01;100937.75;4989089;28;20030;-76
2022/11/07 10:00:09;;;;;;;17.00;3.70;;;;;;;12.68;96.30;100936.91;4989092;28;20502;-76
2022/11/07 10:02:41;;;;;;;15.90;3.75;;;;;;;12.72;96.93;100945.44;4988076;28;20022;-84
2022/11/07 10:05:13;;;;;;;14.88;3.28;;;;;;;12.74;96.63;100951.41;4990749;28;20101;-76
2022/11/07 10:08:02;;;;;;;15.63;3.38;;;;;;;12.79;97.20;100946.59;4991200;28;20080;-76
2022/11/07 10:10:27;;;;;;;14.52;3.13;;;;;;;12.77;96.57;100937.97;4988466;28;20054;-77
2022/11/07 10:13:11;;;;;;;16.13;3.58;;;;;;;12.79;96.43;100938.69;4986389;28;20113;-76
2022/11/07 10:16:08;;;;;;;13.38;3.40;;;;;;;12.80;95.84;100948.28;4983346;28;20113;-75
2022/11/07 10:18:41;;;;;;;12.52;3.40;;;;;;;12.82;95.93;100951.66;5017044;28;20023;-76
2022/11/07 10:21:27;;;;;;;13.25;3.20;;;;;;;12.86;95.85;100956.56;4970156;28;20089;-76
2022/11/07 10:24:21;;;;;;;14.60;3.33;;;;;;;12.96;95.90;100951.34;4984132;28;20462;-73
2022/11/07 10:26:48;;;;;;;13.48;3.47;;;;;;;13.03;95.41;100944.59;4969481;28;20062;-75
2022/11/07 10:29:14;;;;;;;14.43;3.60;;;;;;;13.09;94.10;100938.81;4987508;28;20465;-76
2022/11/07 10:31:49;;;;;;;18.83;3.72;;;;;;;13.14;93.48;100947.19;5002820;28;20121;-77
2022/11/07 10:34:21;;;;;;;10.18;3.13;;;;;;;13.17;94.19;100949.59;5009723;28;20386;-75
2022/11/07 10:36:47;;;;;;;15.10;3.25;;;;;;;13.20;92.95;100956.44;5008739;28;20040;-76
2022/11/07 10:39:15;;;;;;;17.73;3.33;;;;;;;13.23;92.47;100969.41;5011727;28;20022;-76
2022/11/07 10:41:46;;;;;;;20.40;4.20;;;;;;;13.28;91.89;100958.47;5015709;28;20026;-76
2022/11/07 10:44:23;;;;;;;14.23;3.60;;;;;;;13.35;92.45;100964.91;5001259;28;20027;-76
2022/11/07 10:46:49;;;;;;;11.75;3.75;;;;;;;13.39;91.39;100966.31;4986747;28;20058;-76
2022/11/07 10:49:20;;;;;;;16.95;3.70;;;;;;;13.44;91.18;100964.97;4989730;28;20034;-75
2022/11/07 10:51:46;;;;;;;14.60;3.28;;;;;;;13.44;91.05;100964.97;4988124;28;20030;-85
2022/11/07 10:54:39;;;;;;;15.85;3.65;;;;;;;13.55;91.89;100973.78;4977503;28;20450;-75
2022/11/07 10:57:11;;;;;;;15.82;3.38;;;;;;;13.60;90.84;100977.72;4988199;28;20095;-75
2022/11/07 10:59:39;;;;;;;11.00;3.33;;;;;;;13.62;89.65;100981.09;4988275;28;20097;-75
2022/11/07 11:02:40;;;;;;;18.35;4.32;;;;;;;13.66;90.20;100974.56;4989414;28;20026;-75
2022/11/07 11:05:38;;;;;;;14.57;3.35;;;;;;;13.61;90.00;100978.56;5004072;28;20034;-72
2022/11/07 11:08:30;;;;;;;15.70;3.40;;;;;;;13.60;90.04;100984.81;5017396;28;20092;-76
2022/11/07 11:10:56;;;;;;;17.60;3.72;;;;;;;13.59;89.63;100973.41;4949559;28;1139564;-75
2022/11/07 11:13:24;;;;;;;15.25;3.47;;;;;;;13.57;88.94;100980.63;4991155;28;20042;-76
2022/11/07 11:15:49;;;;;;;16.92;3.38;;;;;;;13.61;89.45;100966.19;4991266;28;20042;-76
2022/11/07 11:18:17;;;;;;;17.45;3.42;;;;;;;13.62;89.05;100967.88;4991597;28;20037;-75
2022/11/07 11:20:52;;;;;;;14.27;2.97;;;;;;;13.63;88.59;100968.72;5002489;28;20606;-75
2022/11/07 11:23:21;;;;;;;14.27;3.83;;;;;;;13.62;88.26;100959.94;4993100;28;20434;-76
2022/11/07 11:25:49;;;;;;;15.23;4.18;;;;;;;13.61;88.21;100962.69;5005432;28;20018;-76
2022/11/07 11:28:39;;;;;;;17.27;3.92;;;;;;;13.65;88.67;100951.75;5007398;28;20041;-76